Time;durP1;ratioP1;P1;durP2;ratioP2;P2;SDS_P1;SDS_P2;PMS_P1;PMS_P2;Temp;Humidity;BMP_temperature;BMP_pressure;BME280_temperature;BME280_humidity;BME280_pressure;Samples;Min_cycle;Max_cycle;Signal;HPM_P1;HPM_P2
2022/05/31 00:01:30;;;;;;;6.18;3.13;;;;;;;10.70;59.89;98733.16;5160050;28;20724;-72
2022/05/31 00:04:21;;;;;;;4.80;3.35;;;;;;;10.57;60.94;98730.03;5161499;28;20058;-73
2022/05/31 00:07:11;;;;;;;5.22;3.17;;;;;;;10.50;60.77;98723.66;5160445;28;20124;-73
2022/05/31 00:10:02;;;;;;;5.63;2.97;;;;;;;10.60;60.53;98728.91;5160089;28;20568;-73
2022/05/31 00:12:52;;;;;;;4.13;3.22;;;;;;;10.65;60.64;98727.44;5148193;28;20181;-72
2022/05/31 00:15:43;;;;;;;7.55;3.40;;;;;;;10.62;60.51;98727.75;5161359;28;20612;-73
2022/05/31 00:18:33;;;;;;;8.95;3.65;;;;;;;10.68;60.37;98721.84;5160832;28;20085;-72
2022/05/31 00:21:36;;;;;;;5.38;3.08;;;;;;;10.74;60.15;98731.84;5159901;28;20061;-72
2022/05/31 00:24:26;;;;;;;4.15;3.53;;;;;;;10.58;61.33;98719.28;5146309;28;20062;-73
2022/05/31 00:27:19;;;;;;;5.72;3.25;;;;;;;10.73;60.23;98724.06;5160010;28;20533;-72
2022/05/31 00:30:12;;;;;;;5.10;3.00;;;;;;;10.69;60.72;98720.84;5146048;28;20102;-72
2022/05/31 00:33:02;;;;;;;6.07;3.17;;;;;;;10.48;61.14;98720.31;5160791;28;20043;-72
2022/05/31 00:35:53;;;;;;;6.82;3.58;;;;;;;10.52;60.85;98711.09;5162882;28;20054;-72
2022/05/31 00:38:43;;;;;;;6.20;3.10;;;;;;;10.49;60.12;98703.44;5148512;28;20052;-72
2022/05/31 00:41:34;;;;;;;5.10;3.35;;;;;;;10.67;60.99;98717.53;5154619;28;20139;-72
2022/05/31 00:44:27;;;;;;;6.25;3.25;;;;;;;10.34;61.25;98703.13;5164221;28;20140;-72
2022/05/31 00:47:19;;;;;;;6.28;3.22;;;;;;;10.26;60.94;98711.78;5164605;28;20593;-72
2022/05/31 00:50:24;;;;;;;5.15;3.63;;;;;;;10.45;60.48;98708.19;5163345;28;20216;-72
2022/05/31 00:53:19;;;;;;;3.80;2.72;;;;;;;10.36;60.70;98711.75;5163683;28;20057;-72
2022/05/31 00:56:25;;;;;;;4.78;3.28;;;;;;;10.32;61.30;98705.91;5163284;28;20140;-73
2022/05/31 00:59:35;;;;;;;4.30;3.08;;;;;;;10.23;61.38;98711.22;5163428;28;20105;-72
2022/05/31 01:02:26;;;;;;;6.60;3.35;;;;;;;10.12;62.38;98725.53;5163053;28;20766;-72
2022/05/31 01:05:18;;;;;;;5.68;3.35;;;;;;;10.05;62.21;98713.84;5162898;28;20061;-73
2022/05/31 01:08:10;;;;;;;4.07;3.03;;;;;;;9.99;61.52;98722.38;5164278;28;20077;-73
2022/05/31 01:11:21;;;;;;;7.38;3.33;;;;;;;9.99;61.51;98693.25;5162963;28;20093;-73
2022/05/31 01:14:49;;;;;;;7.35;3.92;;;;;;;10.20;61.58;98716.81;5118459;29;20129;-72
2022/05/31 01:18:04;;;;;;;4.80;3.33;;;;;;;10.18;61.88;98722.28;5113647;28;20047;-73
2022/05/31 01:21:14;;;;;;;5.30;3.67;;;;;;;10.05;62.30;98711.19;5163401;28;20061;-72
2022/05/31 01:24:29;;;;;;;4.63;3.40;;;;;;;10.03;62.01;98716.66;5162873;28;20061;-73
2022/05/31 01:27:55;;;;;;;3.65;3.10;;;;;;;9.93;62.89;98715.84;5149462;28;20058;-72
2022/05/31 01:31:15;;;;;;;4.90;3.05;;;;;;;9.87;62.27;98725.22;5145522;28;20130;-72
2022/05/31 01:34:11;;;;;;;7.35;4.32;;;;;;;9.63;62.71;98720.44;5163641;28;20137;-72
2022/05/31 01:37:02;;;;;;;4.82;3.53;;;;;;;9.63;62.95;98719.59;5161234;28;20065;-72
2022/05/31 01:40:00;;;;;;;6.78;3.50;;;;;;;9.47;63.27;98716.72;5163570;28;20196;-72
2022/05/31 01:42:51;;;;;;;6.15;3.80;;;;;;;9.68;63.00;98722.66;5163715;28;20058;-72
2022/05/31 01:45:55;;;;;;;8.90;3.97;;;;;;;9.69;63.15;98719.00;5152660;28;20058;-72
2022/05/31 01:48:46;;;;;;;8.90;4.53;;;;;;;9.92;62.82;98721.31;5146622;28;20057;-72
2022/05/31 01:51:40;;;;;;;6.70;4.07;;;;;;;9.95;62.58;98715.72;5148414;28;20100;-72
2022/05/31 01:54:32;;;;;;;10.98;4.60;;;;;;;9.83;63.81;98710.63;5163295;28;20468;-72
2022/05/31 01:57:24;;;;;;;8.95;4.35;;;;;;;9.89;63.24;98706.53;5163611;28;20058;-72
2022/05/31 02:00:16;;;;;;;9.35;4.85;;;;;;;9.69;63.61;98716.38;5148493;28;20054;-72
2022/05/31 02:03:07;;;;;;;6.90;4.57;;;;;;;9.51;64.08;98689.00;5161612;28;20042;-72
2022/05/31 02:05:59;;;;;;;8.52;4.57;;;;;;;9.70;63.80;98706.59;5161887;28;20315;-72
2022/05/31 02:08:49;;;;;;;8.68;4.38;;;;;;;9.68;63.91;98704.13;5161695;28;20085;-72
2022/05/31 02:11:40;;;;;;;7.15;4.18;;;;;;;9.64;63.68;98694.81;5161852;28;20100;-72
2022/05/31 02:14:40;;;;;;;6.45;4.22;;;;;;;9.58;63.51;98716.56;5161358;28;20413;-73
2022/05/31 02:17:30;;;;;;;10.63;4.10;;;;;;;9.72;64.14;98707.31;5149624;28;20516;-72
2022/05/31 02:20:48;;;;;;;6.78;4.00;;;;;;;9.74;64.42;98710.66;5161234;28;20058;-73
2022/05/31 02:23:39;;;;;;;9.43;4.20;;;;;;;9.67;64.37;98710.41;5162433;28;20053;-73
2022/05/31 02:26:30;;;;;;;7.15;4.50;;;;;;;9.70;64.28;98714.56;5162514;28;20057;-73
2022/05/31 02:29:27;;;;;;;9.13;3.92;;;;;;;9.43;64.02;98704.75;5161324;28;20065;-73
2022/05/31 02:32:18;;;;;;;7.25;3.78;;;;;;;9.21;63.48;98695.34;5152898;28;20055;-73
2022/05/31 02:35:09;;;;;;;4.80;3.70;;;;;;;9.32;64.14;98708.41;5162470;28;20051;-73
2022/05/31 02:38:00;;;;;;;5.28;3.28;;;;;;;9.25;63.81;98718.72;5161523;28;20046;-72
2022/05/31 02:40:50;;;;;;;5.32;3.70;;;;;;;9.20;65.15;98710.38;5162228;28;20140;-72
2022/05/31 02:43:40;;;;;;;4.97;3.78;;;;;;;9.32;65.53;98719.00;5161370;28;20108;-72
2022/05/31 02:46:30;;;;;;;5.50;3.92;;;;;;;9.50;65.12;98703.19;5155136;28;20112;-72
2022/05/31 02:49:21;;;;;;;6.40;4.05;;;;;;;9.44;65.39;98709.06;5145473;28;20105;-72
2022/05/31 02:52:13;;;;;;;10.10;4.70;;;;;;;9.61;64.99;98689.81;5162125;28;20068;-73
2022/05/31 02:55:04;;;;;;;7.40;4.03;;;;;;;9.53;65.19;98716.13;5161340;28;20569;-72
2022/05/31 02:57:54;;;;;;;5.35;3.92;;;;;;;9.39;63.86;98718.25;5161905;28;20100;-73
2022/05/31 03:01:31;;;;;;;6.47;3.72;;;;;;;9.49;64.80;98712.13;5159541;28;20047;-73
2022/05/31 03:04:41;;;;;;;6.35;4.43;;;;;;;9.71;63.86;98711.78;5161834;28;20096;-72
2022/05/31 03:07:50;;;;;;;6.82;4.25;;;;;;;9.66;64.59;98706.06;5161910;28;20520;-72
2022/05/31 03:10:50;;;;;;;5.75;4.00;;;;;;;9.34;63.16;98698.53;5162003;28;20773;-72
2022/05/31 03:13:42;;;;;;;6.43;3.90;;;;;;;9.23;63.16;98690.75;5160870;28;20129;-72
2022/05/31 03:16:38;;;;;;;10.00;4.28;;;;;;;9.07;65.83;98712.47;5161422;28;20050;-73
2022/05/31 03:19:34;;;;;;;7.78;4.00;;;;;;;9.05;65.21;98688.81;5161888;28;20133;-73
2022/05/31 03:22:28;;;;;;;4.68;3.80;;;;;;;9.23;65.01;98704.78;5160724;28;20169;-72
2022/05/31 03:25:23;;;;;;;10.60;4.45;;;;;;;9.41;65.15;98718.13;5147634;28;20105;-73
2022/05/31 03:28:15;;;;;;;6.38;4.03;;;;;;;9.36;64.60;98704.50;5160747;28;20062;-72
2022/05/31 03:31:07;;;;;;;6.65;3.90;;;;;;;9.15;64.83;98717.91;5160252;28;20092;-72
2022/05/31 03:33:57;;;;;;;5.13;4.03;;;;;;;9.15;65.00;98717.91;5160488;28;20057;-73
2022/05/31 03:36:48;;;;;;;6.50;3.88;;;;;;;9.19;64.94;98724.56;5160418;28;20053;-73
2022/05/31 03:39:39;;;;;;;6.15;4.38;;;;;;;9.15;64.80;98717.91;5160593;28;20671;-73
2022/05/31 03:42:30;;;;;;;5.47;4.07;;;;;;;9.18;65.09;98730.84;5160042;28;20189;-73
2022/05/31 03:45:20;;;;;;;8.43;4.47;;;;;;;9.38;65.36;98727.19;5161057;28;20054;-73
2022/05/31 03:48:30;;;;;;;6.65;4.25;;;;;;;9.41;64.51;98729.56;5161481;28;20061;-73
2022/05/31 03:51:22;;;;;;;7.40;4.25;;;;;;;9.73;64.45;98704.50;5160199;28;20136;-73
2022/05/31 03:54:16;;;;;;;6.80;4.63;;;;;;;9.64;64.61;98716.81;5160686;28;20117;-73
2022/05/31 03:57:25;;;;;;;7.90;5.20;;;;;;;9.27;66.21;98706.19;5149993;28;20526;-73
2022/05/31 04:00:38;;;;;;;9.07;5.25;;;;;;;9.53;65.79;98718.78;5160536;28;20058;-73
2022/05/31 04:03:42;;;;;;;5.95;4.40;;;;;;;9.55;65.67;98717.66;5150822;28;20169;-72
2022/05/31 04:06:35;;;;;;;6.97;5.10;;;;;;;9.69;66.14;98715.53;5160071;28;20042;-73
2022/05/31 04:09:25;;;;;;;8.52;4.50;;;;;;;9.81;65.11;98712.56;5146995;28;20046;-73
2022/05/31 04:12:15;;;;;;;10.77;5.55;;;;;;;9.89;65.83;98720.59;5150473;28;20054;-73
2022/05/31 04:15:35;;;;;;;9.27;5.53;;;;;;;10.30;63.77;98712.38;5131100;28;20051;-72
2022/05/31 04:18:25;;;;;;;9.25;5.30;;;;;;;9.97;65.40;98711.13;5162510;28;20089;-73
2022/05/31 04:21:17;;;;;;;6.80;5.25;;;;;;;9.93;64.51;98699.94;5163654;28;20054;-72
2022/05/31 04:24:08;;;;;;;8.50;5.50;;;;;;;9.94;65.86;98700.81;5158646;28;20140;-73
2022/05/31 04:27:05;;;;;;;8.32;6.05;;;;;;;10.04;65.95;98705.06;5164586;28;20058;-73
2022/05/31 04:30:15;;;;;;;7.95;5.70;;;;;;;10.18;65.91;98706.38;5164497;28;20050;-72
2022/05/31 04:33:24;;;;;;;11.70;5.35;;;;;;;10.03;65.46;98713.16;5165542;28;20496;-73
2022/05/31 04:36:17;;;;;;;12.60;6.15;;;;;;;10.11;65.71;98715.91;5155841;28;20444;-73
2022/05/31 04:39:08;;;;;;;7.00;4.80;;;;;;;10.07;63.81;98696.00;5162860;28;20342;-73
2022/05/31 04:42:02;;;;;;;8.27;4.68;;;;;;;10.20;63.98;98693.84;5143816;28;20054;-72
2022/05/31 04:44:53;;;;;;;8.13;5.47;;;;;;;10.35;64.75;98694.19;5158270;28;20566;-73
2022/05/31 04:47:43;;;;;;;9.90;5.78;;;;;;;10.38;64.53;98695.69;5156641;28;20053;-73
2022/05/31 04:50:35;;;;;;;8.88;5.22;;;;;;;10.41;65.58;98690.09;5157915;28;20054;-73
2022/05/31 04:53:27;;;;;;;7.63;5.32;;;;;;;10.40;65.58;98691.94;5165139;28;20046;-73
2022/05/31 04:56:36;;;;;;;9.63;5.53;;;;;;;10.38;64.58;98683.28;5165307;28;20088;-73
2022/05/31 04:59:32;;;;;;;6.15;4.68;;;;;;;10.44;64.98;98692.47;5155609;28;20072;-72
2022/05/31 05:02:22;;;;;;;7.13;4.85;;;;;;;10.39;64.81;98674.34;5163366;28;20058;-72
2022/05/31 05:05:19;;;;;;;9.18;5.72;;;;;;;10.59;64.51;98685.63;5157056;28;20508;-73
2022/05/31 05:08:11;;;;;;;10.25;5.78;;;;;;;10.81;64.23;98689.66;5161621;28;20167;-72
2022/05/31 05:11:04;;;;;;;8.13;6.13;;;;;;;10.96;64.05;98692.56;5162097;28;20156;-73
2022/05/31 05:14:17;;;;;;;8.90;6.03;;;;;;;10.98;63.62;98687.97;5159699;28;20061;-73
2022/05/31 05:17:18;;;;;;;12.15;6.18;;;;;;;10.97;63.67;98687.13;5152904;28;20061;-71
2022/05/31 05:20:11;;;;;;;8.02;5.55;;;;;;;11.08;63.50;98691.34;5162425;28;20129;-72
2022/05/31 05:23:03;;;;;;;11.18;6.18;;;;;;;11.18;63.62;98692.09;5158711;28;20404;-73
2022/05/31 05:25:56;;;;;;;12.55;6.57;;;;;;;11.43;63.18;98697.59;5147552;28;20050;-71
2022/05/31 05:32:10;;;;;;;5.45;4.38;;;;;;;12.22;59.64;98685.84;5162376;28;20117;-72
2022/05/31 05:35:00;;;;;;;6.05;4.10;;;;;;;12.24;59.36;98686.50;5143978;28;20215;-74
2022/05/31 05:37:52;;;;;;;6.53;4.35;;;;;;;12.19;59.44;98687.00;5160037;28;20116;-71
2022/05/31 05:40:50;;;;;;;6.95;4.07;;;;;;;11.90;61.88;98687.41;5162444;28;20066;-70
2022/05/31 05:43:41;;;;;;;6.55;5.00;;;;;;;12.40;58.65;98675.91;5158008;28;20058;-71
2022/05/31 05:46:36;;;;;;;9.68;4.25;;;;;;;12.61;59.16;98688.75;5160768;28;20456;-71
2022/05/31 05:49:27;;;;;;;8.57;4.00;;;;;;;13.22;58.14;98683.94;5147753;28;20057;-73
2022/05/31 05:52:21;;;;;;;5.83;3.80;;;;;;;13.28;56.30;98662.00;5159372;28;20062;-71
2022/05/31 05:55:31;;;;;;;5.82;3.80;;;;;;;13.49;56.01;98661.44;5136753;28;20316;-73
2022/05/31 05:58:42;;;;;;;8.02;3.97;;;;;;;13.81;55.55;98675.69;5149732;28;20452;-74
2022/05/31 06:01:57;;;;;;;8.35;4.53;;;;;;;14.02;55.10;98680.44;5160810;28;20108;-73
2022/05/31 06:05:31;;;;;;;4.32;3.58;;;;;;;13.93;54.29;98676.94;5154841;28;20593;-73
2022/05/31 06:08:35;;;;;;;8.43;3.92;;;;;;;13.90;56.31;98677.28;5157651;28;20140;-73
2022/05/31 06:11:31;;;;;;;5.28;3.50;;;;;;;14.16;55.31;98692.19;5155042;28;20061;-73
2022/05/31 06:14:36;;;;;;;5.65;3.67;;;;;;;14.55;54.66;98677.00;5157491;28;20053;-73
2022/05/31 06:17:33;;;;;;;7.95;3.47;;;;;;;14.93;51.64;98682.41;5146622;28;20116;-73
2022/05/31 06:20:26;;;;;;;7.90;3.97;;;;;;;15.19;52.30;98673.16;5143147;28;20050;-73
2022/05/31 06:23:17;;;;;;;7.27;3.60;;;;;;;15.07;52.89;98678.09;5161130;28;20053;-73
2022/05/31 06:26:08;;;;;;;6.88;3.50;;;;;;;15.36;52.50;98682.66;5147210;28;20061;-71
2022/05/31 06:29:05;;;;;;;8.52;3.70;;;;;;;15.69;50.87;98677.00;5146072;28;20177;-72
2022/05/31 06:31:55;;;;;;;6.78;3.50;;;;;;;15.81;52.14;98680.06;5160632;28;20504;-70
2022/05/31 06:34:55;;;;;;;8.13;3.10;;;;;;;15.72;52.57;98664.09;5160821;28;20056;-70
2022/05/31 06:37:56;;;;;;;7.45;3.70;;;;;;;15.95;52.27;98687.22;5161625;28;20056;-70
2022/05/31 06:40:46;;;;;;;9.23;3.70;;;;;;;16.27;49.83;98682.50;5161164;28;20560;-71
2022/05/31 06:43:42;;;;;;;6.50;3.55;;;;;;;16.31;52.27;98687.28;5146602;28;20046;-70
2022/05/31 06:47:02;;;;;;;11.35;3.40;;;;;;;16.80;50.89;98689.28;5161647;28;20694;-70
2022/05/31 06:50:12;;;;;;;6.90;3.45;;;;;;;17.47;47.05;98671.91;5159372;28;20664;-70
2022/05/31 06:56:49;;;;;;;11.02;3.38;;;;;;;17.55;48.24;98684.34;5162193;28;20111;-71
2022/05/31 06:59:56;;;;;;;6.78;3.85;;;;;;;17.29;47.99;98661.69;5160274;28;20057;-70
2022/05/31 07:02:49;;;;;;;9.52;3.25;;;;;;;18.60;44.41;98675.13;5160296;28;20120;-70
2022/05/31 07:05:40;;;;;;;4.95;3.10;;;;;;;17.92;46.52;98674.25;5159508;28;20144;-70
2022/05/31 07:08:38;;;;;;;8.60;3.53;;;;;;;19.41;43.93;98676.88;5146275;28;20050;-70
2022/05/31 07:11:48;;;;;;;8.93;3.58;;;;;;;19.42;43.08;98678.50;5161664;28;20653;-69
2022/05/31 07:14:57;;;;;;;9.18;3.17;;;;;;;20.23;43.29;98677.28;5156658;28;20120;-69
2022/05/31 07:18:07;;;;;;;7.30;3.05;;;;;;;20.47;41.74;98670.34;5150258;28;20616;-69
2022/05/31 07:20:58;;;;;;;7.95;2.55;;;;;;;20.64;40.19;98661.56;5160274;28;20057;-71
2022/05/31 07:23:48;;;;;;;5.50;2.92;;;;;;;20.80;39.67;98656.72;5160987;28;20057;-69
2022/05/31 07:26:39;;;;;;;10.43;2.72;;;;;;;21.45;40.75;98659.09;5160454;28;20057;-69
2022/05/31 07:29:30;;;;;;;7.72;3.40;;;;;;;21.30;38.84;98664.81;5160711;28;20058;-70
2022/05/31 07:32:20;;;;;;;7.53;3.10;;;;;;;22.02;38.57;98657.88;5160304;28;20057;-69
2022/05/31 07:35:31;;;;;;;3.17;2.60;;;;;;;22.44;39.57;98655.28;5160985;28;20046;-69
2022/05/31 07:38:26;;;;;;;;;;;;;;;22.81;36.81;98657.84;5131614;28;20647;-69
2022/05/31 07:41:17;;;;;;;7.05;2.75;;;;;;;22.90;38.00;98655.66;5132744;28;20407;-69
2022/05/31 07:44:10;;;;;;;5.78;2.75;;;;;;;23.24;37.17;98654.09;5161364;28;20092;-69
2022/05/31 07:47:00;;;;;;;7.90;2.45;;;;;;;23.61;38.07;98651.19;5165000;28;20538;-69
2022/05/31 07:49:51;;;;;;;9.63;2.42;;;;;;;23.21;36.57;98651.84;5164563;28;20050;-69
2022/05/31 07:53:08;;;;;;;5.20;2.67;;;;;;;24.53;35.24;98634.13;5164473;28;20450;-69
2022/05/31 07:56:20;;;;;;;5.05;2.70;;;;;;;24.66;35.68;98631.09;5165088;28;20057;-69
2022/05/31 07:59:41;;;;;;;8.35;2.30;;;;;;;24.70;34.72;98643.13;5156489;28;20069;-70
2022/05/31 08:02:54;;;;;;;4.20;2.28;;;;;;;25.52;34.14;98641.75;5165449;28;20144;-70
2022/05/31 08:05:44;;;;;;;4.18;1.92;;;;;;;26.18;33.79;98633.66;5163291;28;20047;-69
2022/05/31 08:08:35;;;;;;;7.05;2.00;;;;;;;26.67;31.49;98644.56;5164900;28;20177;-70
2022/05/31 08:11:29;;;;;;;5.22;2.03;;;;;;;27.00;30.65;98637.25;5143227;28;20054;-70
2022/05/31 08:14:19;;;;;;;4.05;2.08;;;;;;;26.69;31.84;98621.47;5140305;28;20108;-69
2022/05/31 08:17:10;;;;;;;8.02;2.40;;;;;;;26.89;31.93;98637.16;5146298;28;20424;-69
2022/05/31 08:20:07;;;;;;;3.10;1.83;;;;;;;26.01;32.98;98615.53;5149671;28;20200;-69
2022/05/31 08:23:00;;;;;;;4.72;2.03;;;;;;;27.09;31.46;98622.09;5146664;28;20533;-69
2022/05/31 08:25:54;;;;;;;6.03;1.90;;;;;;;27.06;31.66;98625.31;5138620;28;20065;-69
2022/05/31 08:28:44;;;;;;;5.55;2.00;;;;;;;27.55;31.07;98625.97;5142454;28;20189;-70
2022/05/31 08:31:36;;;;;;;4.55;1.83;;;;;;;27.49;31.53;98627.03;5138119;28;20065;-69
2022/05/31 08:34:29;;;;;;;4.60;2.03;;;;;;;26.94;30.54;98620.03;5148513;28;20093;-69
2022/05/31 08:37:19;;;;;;;4.32;1.65;;;;;;;26.08;31.38;98607.19;5147153;28;20527;-69
2022/05/31 08:40:11;;;;;;;3.75;1.40;;;;;;;26.40;33.43;98593.69;5147974;28;20058;-69
2022/05/31 08:43:06;;;;;;;5.70;1.80;;;;;;;26.59;30.94;98604.22;5149812;28;20061;-70
2022/05/31 08:46:02;;;;;;;4.40;1.77;;;;;;;27.04;32.98;98609.25;5140329;28;20050;-69
2022/05/31 08:48:56;;;;;;;2.10;1.40;;;;;;;26.98;32.06;98610.28;5140231;28;20085;-69
2022/05/31 08:51:54;;;;;;;4.47;1.70;;;;;;;25.46;33.20;98610.16;5136611;28;20136;-70
2022/05/31 08:58:13;;;;;;;4.45;2.08;;;;;;;26.05;32.60;98610.41;5143606;28;20208;-69
2022/05/31 09:01:04;;;;;;;3.75;2.03;;;;;;;25.94;32.07;98604.06;5147137;28;20499;-69
2022/05/31 09:04:02;;;;;;;8.10;1.90;;;;;;;25.58;33.80;98612.78;5148207;28;20129;-69
2022/05/31 09:07:02;;;;;;;6.85;2.20;;;;;;;25.59;31.31;98609.81;5144365;28;20086;-69
2022/05/31 09:10:01;;;;;;;4.10;1.85;;;;;;;24.91;33.21;98619.06;5146574;28;20511;-69
2022/05/31 09:12:58;;;;;;;4.20;1.73;;;;;;;24.14;35.72;98607.66;5142145;28;20077;-70
2022/05/31 09:15:57;;;;;;;4.18;1.83;;;;;;;23.77;35.80;98615.25;5142064;28;20113;-69
2022/05/31 09:18:51;;;;;;;5.22;2.22;;;;;;;24.76;33.65;98622.31;5139002;28;20055;-69
2022/05/31 09:21:45;;;;;;;7.78;2.17;;;;;;;23.75;35.76;98622.81;5142833;28;20808;-69
2022/05/31 09:24:43;;;;;;;;;;;;;;;23.98;36.89;98624.66;5144951;28;20495;-69
2022/05/31 09:27:46;;;;;;;4.20;1.70;;;;;;;23.85;36.17;98623.03;5149162;28;19984;-69
2022/05/31 09:30:42;;;;;;;4.82;2.10;;;;;;;23.15;36.66;98623.06;5150216;28;20050;-69
2022/05/31 09:33:39;;;;;;;4.05;1.90;;;;;;;25.13;38.06;98619.97;5142293;28;20056;-69
2022/05/31 09:36:43;;;;;;;4.55;1.80;;;;;;;25.02;33.49;98623.59;5136022;28;20046;-69
2022/05/31 09:39:49;;;;;;;;;;;;;;;25.73;35.42;98624.69;5138034;28;20065;-70
2022/05/31 09:42:45;;;;;;;;;;;;;;;25.85;34.55;98629.19;5136625;28;20498;-69
2022/05/31 09:45:52;;;;;;;2.63;1.70;;;;;;;26.15;31.67;98610.53;5142337;28;19930;-70
2022/05/31 09:48:46;;;;;;;8.63;2.20;;;;;;;26.20;32.10;98618.75;5135999;28;20054;-70
2022/05/31 09:51:40;;;;;;;4.40;2.08;;;;;;;26.09;33.50;98622.41;5153529;28;20054;-70
2022/05/31 09:58:08;;;;;;;3.28;2.00;;;;;;;26.70;32.98;98616.84;5141238;28;20057;-70
2022/05/31 10:01:27;;;;;;;3.75;1.80;;;;;;;26.38;31.85;98614.03;5139103;28;20420;-70
2022/05/31 10:04:28;;;;;;;4.28;1.67;;;;;;;26.99;34.74;98608.38;5136206;28;20432;-70
2022/05/31 10:07:36;;;;;;;6.95;2.25;;;;;;;26.54;31.16;98602.28;5137513;28;20062;-70
2022/05/31 10:10:35;;;;;;;5.43;2.00;;;;;;;26.01;33.39;98606.56;5138590;28;20225;-70
2022/05/31 10:13:35;;;;;;;6.75;1.98;;;;;;;25.32;33.36;98601.56;5144531;28;20069;-70
2022/05/31 10:16:30;;;;;;;6.38;1.75;;;;;;;26.73;32.24;98596.47;5145989;28;20535;-70
2022/05/31 10:19:29;;;;;;;3.72;1.90;;;;;;;26.69;30.88;98596.19;5146252;28;20128;-70
2022/05/31 10:22:20;;;;;;;3.20;2.35;;;;;;;26.40;34.44;98590.16;5139799;28;20058;-70
2022/05/31 10:25:55;;;;;;;2.83;1.52;;;;;;;26.74;32.36;98596.22;5140943;28;20100;-70
2022/05/31 10:29:16;;;;;;;6.32;1.95;;;;;;;25.84;32.36;98587.63;5143839;28;20058;-70
2022/05/31 10:32:26;;;;;;;3.80;1.67;;;;;;;26.08;32.30;98590.09;5142850;28;20058;-69
2022/05/31 10:35:30;;;;;;;3.35;1.65;;;;;;;27.23;34.30;98592.53;5126710;28;20069;-69
2022/05/31 10:38:28;;;;;;;9.90;2.00;;;;;;;26.60;30.63;98595.81;5146779;28;20053;-70
2022/05/31 10:41:31;;;;;;;4.20;1.70;;;;;;;26.17;30.36;98586.66;5146953;28;20050;-70
2022/05/31 10:44:51;;;;;;;5.10;2.00;;;;;;;26.76;32.04;98595.97;5145300;28;20125;-70
2022/05/31 10:47:41;;;;;;;4.70;1.50;;;;;;;25.60;30.69;98587.03;5145792;28;20050;-70
2022/05/31 10:51:09;;;;;;;9.77;1.83;;;;;;;25.60;31.82;98591.66;5141722;28;20057;-69
2022/05/31 10:54:21;;;;;;;5.80;1.50;;;;;;;25.08;31.97;98599.00;5142225;28;20050;-69
2022/05/31 10:57:45;;;;;;;3.90;1.55;;;;;;;24.97;33.84;98597.22;5140930;28;20145;-70
2022/05/31 11:00:47;;;;;;;2.90;1.40;;;;;;;24.20;31.72;98597.69;5141134;28;20046;-70
2022/05/31 11:04:08;;;;;;;3.78;1.55;;;;;;;24.66;35.27;98593.16;5138523;28;20168;-69
2022/05/31 11:07:21;;;;;;;5.53;1.30;;;;;;;23.57;35.20;98595.84;5141322;28;20069;-69
2022/05/31 11:14:11;;;;;;;2.97;1.50;;;;;;;23.34;34.15;98594.00;5136954;28;20089;-69
2022/05/31 11:17:16;;;;;;;2.60;1.15;;;;;;;24.01;33.66;98601.69;5145566;28;20065;-70
2022/05/31 11:20:14;;;;;;;3.28;1.27;;;;;;;23.51;32.23;98600.34;5145179;28;20136;-69
2022/05/31 11:23:44;;;;;;;3.47;1.20;;;;;;;23.96;30.97;98585.31;5131732;28;20135;-69
2022/05/31 11:27:10;;;;;;;3.58;1.30;;;;;;;24.10;31.25;98597.50;5131785;28;20062;-70
2022/05/31 11:30:19;;;;;;;3.97;1.13;;;;;;;23.70;30.38;98584.78;5136576;28;20054;-70
2022/05/31 11:33:32;;;;;;;4.40;1.23;;;;;;;23.28;31.04;98590.38;5136096;28;20054;-71
2022/05/31 11:36:57;;;;;;;5.35;2.03;;;;;;;23.43;32.20;98598.00;5136388;28;20122;-74
2022/05/31 11:40:16;;;;;;;2.93;1.20;;;;;;;22.88;31.41;98587.47;5135068;28;20069;-72
2022/05/31 11:43:24;;;;;;;7.65;1.30;;;;;;;24.30;33.93;98588.94;5089893;28;20937;-73
2022/05/31 11:46:26;;;;;;;3.28;1.17;;;;;;;24.16;31.76;98588.44;5144436;28;20151;-72
2022/05/31 11:49:40;;;;;;;3.58;1.33;;;;;;;24.38;29.76;98597.53;5149726;28;20542;-72
2022/05/31 11:52:37;;;;;;;4.35;1.20;;;;;;;24.17;29.89;98603.59;5146869;28;20116;-71
2022/05/31 11:55:46;;;;;;;5.00;1.00;;;;;;;24.14;29.79;98602.22;5148228;28;20061;-72
2022/05/31 11:58:46;;;;;;;6.68;1.25;;;;;;;23.53;29.90;98597.41;5160581;28;20073;-71
2022/05/31 12:01:56;;;;;;;2.92;1.27;;;;;;;23.32;28.79;98586.13;5160198;28;20062;-70
2022/05/31 12:05:10;;;;;;;3.25;1.05;;;;;;;23.38;28.86;98606.00;5161131;28;20105;-71
2022/05/31 12:08:12;;;;;;;1.73;1.00;;;;;;;22.94;27.37;98595.50;5153107;28;20054;-71
2022/05/31 12:11:08;;;;;;;3.25;1.10;;;;;;;23.21;29.36;98590.50;5160444;28;20528;-71
2022/05/31 12:13:59;;;;;;;2.45;1.02;;;;;;;24.21;26.98;98580.41;5160876;28;20144;-71
2022/05/31 12:16:51;;;;;;;5.00;1.15;;;;;;;23.96;29.10;98590.75;5161314;28;20196;-71
2022/05/31 12:20:19;;;;;;;2.72;1.30;;;;;;;23.04;30.41;98583.28;5161052;28;20468;-72
2022/05/31 12:23:32;;;;;;;3.67;1.27;;;;;;;23.19;29.20;98597.19;5159788;28;20058;-71
2022/05/31 12:26:32;;;;;;;5.90;1.13;;;;;;;24.00;29.66;98600.03;5157248;28;20627;-71
2022/05/31 12:29:32;;;;;;;3.25;1.30;;;;;;;23.78;30.23;98592.56;5157527;28;20062;-71
2022/05/31 12:32:26;;;;;;;3.30;1.10;;;;;;;23.16;31.12;98594.94;5163043;28;20058;-69
2022/05/31 12:35:32;;;;;;;3.00;0.98;;;;;;;23.53;30.37;98589.28;5163739;28;20646;-71
2022/05/31 12:38:22;;;;;;;5.25;1.30;;;;;;;23.00;30.29;98590.22;5163360;28;20072;-69
2022/05/31 12:41:31;;;;;;;4.63;1.20;;;;;;;23.43;28.90;98581.75;5163084;28;20148;-69
2022/05/31 12:44:30;;;;;;;5.50;1.38;;;;;;;23.55;29.49;98596.09;5163417;28;20109;-70
2022/05/31 12:47:32;;;;;;;2.10;1.20;;;;;;;24.25;30.29;98595.09;5163204;28;20137;-70
2022/05/31 12:50:44;;;;;;;3.45;1.15;;;;;;;24.18;29.04;98583.59;5161611;28;20497;-70
2022/05/31 12:53:37;;;;;;;4.63;1.15;;;;;;;23.81;30.18;98583.97;5157262;28;20057;-72
2022/05/31 12:56:37;;;;;;;8.15;1.10;;;;;;;23.75;30.21;98589.50;5162785;28;20046;-72
2022/05/31 12:59:42;;;;;;;3.78;1.67;;;;;;;23.34;31.20;98584.00;5163110;28;20058;-70
2022/05/31 13:02:36;;;;;;;9.82;1.27;;;;;;;23.67;29.55;98598.78;5158912;28;20056;-71
2022/05/31 13:05:56;;;;;;;4.15;1.33;;;;;;;23.76;28.98;98585.72;5160573;28;20097;-71
2022/05/31 13:08:52;;;;;;;3.83;1.13;;;;;;;23.85;29.88;98585.13;5160436;28;20061;-71
2022/05/31 13:21:29;;;;;;;1.98;1.02;;;;;;;24.15;30.63;98589.50;5159685;28;20101;-71
2022/05/31 13:25:02;;;;;;;3.03;1.03;;;;;;;23.40;30.77;98583.03;5147788;28;20061;-71
2022/05/31 13:27:56;;;;;;;3.55;1.30;;;;;;;23.86;30.19;98580.53;5146590;28;20555;-71
2022/05/31 13:30:46;;;;;;;2.78;1.23;;;;;;;23.94;29.61;98573.91;5141546;28;20085;-72
2022/05/31 13:33:37;;;;;;;2.35;1.10;;;;;;;23.99;29.92;98582.13;5137994;28;20113;-71
2022/05/31 13:36:31;;;;;;;4.28;1.30;;;;;;;23.74;30.65;98575.16;5145036;28;20068;-72
2022/05/31 13:39:23;;;;;;;5.45;1.67;;;;;;;23.76;30.26;98581.13;5144953;28;20115;-69
2022/05/31 13:42:22;;;;;;;1.20;1.10;;;;;;;23.88;31.84;98568.41;5142885;28;20068;-69
2022/05/31 13:45:20;;;;;;;5.70;1.35;;;;;;;24.48;30.18;98577.13;5127121;28;20141;-70
2022/05/31 13:48:17;;;;;;;3.72;1.23;;;;;;;22.91;30.42;98574.34;5139393;28;20085;-69
2022/05/31 13:51:17;;;;;;;3.55;1.10;;;;;;;23.60;31.56;98560.19;5148155;28;20058;-70
2022/05/31 13:54:14;;;;;;;4.22;1.10;;;;;;;24.20;30.94;98567.91;5151122;28;20589;-70
2022/05/31 13:57:05;;;;;;;6.32;1.17;;;;;;;24.39;31.56;98569.34;5143468;28;20205;-69
2022/05/31 13:59:57;;;;;;;1.63;0.98;;;;;;;24.48;30.80;98566.28;5137791;28;20057;-70
2022/05/31 14:02:52;;;;;;;3.40;1.35;;;;;;;24.12;30.67;98574.53;5142048;28;20434;-69
2022/05/31 14:05:53;;;;;;;2.92;0.98;;;;;;;24.32;29.16;98563.25;5154472;28;20046;-68
2022/05/31 14:08:56;;;;;;;3.25;1.50;;;;;;;24.20;29.90;98565.19;5142973;28;20073;-69
2022/05/31 14:12:03;;;;;;;4.85;1.27;;;;;;;23.81;31.19;98564.19;5141606;28;20157;-68
2022/05/31 14:14:54;;;;;;;2.78;1.38;;;;;;;24.07;29.66;98573.63;5143827;28;20050;-69
2022/05/31 14:17:44;;;;;;;6.28;1.27;;;;;;;23.76;29.92;98564.06;5139791;28;20054;-69
2022/05/31 14:20:48;;;;;;;2.38;0.95;;;;;;;24.26;30.78;98558.81;5134417;28;20493;-69
2022/05/31 14:23:39;;;;;;;2.58;1.20;;;;;;;24.21;29.72;98549.78;5135691;28;20136;-69
2022/05/31 14:26:30;;;;;;;4.65;1.23;;;;;;;23.35;28.80;98544.25;5143886;28;20082;-69
2022/05/31 14:29:30;;;;;;;3.25;1.23;;;;;;;23.64;31.68;98550.53;5140010;28;20605;-69
2022/05/31 14:32:29;;;;;;;3.25;1.35;;;;;;;23.57;28.23;98549.84;5135310;28;21897;-69
2022/05/31 14:35:26;;;;;;;2.17;1.33;;;;;;;23.74;31.10;98550.78;5141173;28;20428;-70